Impacts METAR Board
IDs:

KMSP - Minneapolis-St Paul, MN, US

Updated at: 1900 UTC 22 Sep 2018
Potential Impact None Slight Moderate High
Time 22/07Z 22/08Z 22/09Z 22/10Z 22/11Z 22/12Z 22/13Z 22/14Z 22/15Z 22/16Z 22/17Z 22/18Z 22/19Z
Temp47 47 47 46 45 47 48 51 54 57 59 61 63
Dewpt43 43 42 42 42 42 42 42 41 40 39 40 42
Altim30.33 30.33 30.33 30.33 30.31 30.31 30.30 30.30 30.29 30.28 30.25 30.22 30.18
VIS10 9 10 10 10 10 10 10 10 10 10 10 10
CIG-- -- -- -- -- -- -- -- -- -- -- -- --
CoverCLRCLRCLRCLRCLRFEWCLRFEWFEWFEWFEWFEWFEW
FltCatVFRVFRVFRVFRVFRVFRVFRVFRVFRVFRVFRVFRVFR
WX--------------------------
WDir0000190190180180170170180190190
WSpd0 0 0 0 4 4 7 6 9 14 12 10 14
WGst-- -- -- -- -- -- -- -- -- -- -- -- 20
Raw hourly METARs
KMSP 220653Z 00000KT 10SM CLR 08/06 A3033 RMK AO2 SLP275 T00830061
KMSP 220753Z 00000KT 9SM CLR 08/06 A3033 RMK AO2 SLP274 T00830061
KMSP 220853Z 00000KT 10SM CLR 08/06 A3033 RMK AO2 SLP273 T00830056 56003
KMSP 220953Z 00000KT 10SM CLR 08/06 A3033 RMK AO2 SLP272 T00780056
KMSP 221053Z 19004KT 10SM CLR 07/06 A3031 RMK AO2 SLP266 T00720056
KMSP 221153Z 19004KT 10SM FEW100 08/06 A3031 RMK AO2 SLP266 T00830056 10089 20072 56007
KMSP 221253Z 18007KT 10SM CLR 09/06 A3030 RMK AO2 SLP265 T00890056
KMSP 221353Z 18006KT 10SM FEW250 11/06 A3030 RMK AO2 SLP263 T01060056
KMSP 221453Z 17009KT 10SM FEW250 12/05 A3029 RMK AO2 SLP260 T01220050 58005
KMSP 221553Z 17014KT 10SM FEW250 14/04 A3028 RMK AO2 SLP258 T01390044
KMSP 221653Z 18012KT 10SM FEW250 15/04 A3025 RMK AO2 SLP247 T01500039
KMSP 221753Z 19010KT 10SM FEW250 16/04 A3022 RMK AO2 SLP236 T01610044 10161 20083 58023
KMSP 221853Z 19014G20KT 10SM FEW250 17/06 A3018 RMK AO2 SLP223 T01720056



Page loaded:  19:22 UTC  |   12:22 PM Pacific  |   01:22 PM Mountain  |   02:22 PM Central  |   03:22 PM Eastern

 

ADVISORIES

FORECASTS

FORECASTS

OBSERVATIONS

USER TOOLS

ABOUT US